Terminal Aerodrome Forecast
Issued by NWS

Home | Current Version | Previous Version | Text Only | Print | Product List | Glossary Off
Versions: 1 2 3 4 5 6 7 8 9 10 11 12 13 14

000
FTUS43 KOAX 242320
TAFCDR
TAF
KCDR 242320Z 2500/2524 28018G26KT P6SM SCT100
     FM250200 31007KT P6SM BKN100
     FM250800 36007KT P6SM VCSH SCT025 BKN050
     FM251600 34014G21KT P6SM SCT150=

USA.gov is the U.S. government's official web portal to all federal, state and local government web resources and services.